sensor_id;sensor_type;location;lat;lon;timestamp;temperature;humidity
19252;DHT22;9760;50.944;5.304;2022-10-16T00:00:32;14.20;99.90
19252;DHT22;9760;50.944;5.304;2022-10-16T00:02:58;14.20;99.90
19252;DHT22;9760;50.944;5.304;2022-10-16T00:05:24;14.20;99.90
19252;DHT22;9760;50.944;5.304;2022-10-16T00:07:49;14.10;99.90
19252;DHT22;9760;50.944;5.304;2022-10-16T00:10:18;14.20;99.90
19252;DHT22;9760;50.944;5.304;2022-10-16T00:12:43;14.10;99.90
19252;DHT22;9760;50.944;5.304;2022-10-16T00:15:09;14.00;99.90
19252;DHT22;9760;50.944;5.304;2022-10-16T00:17:35;14.00;99.90
19252;DHT22;9760;50.944;5.304;2022-10-16T00:20:01;14.10;99.90
19252;DHT22;9760;50.944;5.304;2022-10-16T00:22:26;14.10;99.90
19252;DHT22;9760;50.944;5.304;2022-10-16T00:24:52;14.00;99.90
19252;DHT22;9760;50.944;5.304;2022-10-16T00:27:17;14.00;99.90
19252;DHT22;9760;50.944;5.304;2022-10-16T00:29:43;14.00;99.90
19252;DHT22;9760;50.944;5.304;2022-10-16T00:32:09;13.90;99.90
19252;DHT22;9760;50.944;5.304;2022-10-16T00:34:34;13.90;99.90
19252;DHT22;9760;50.944;5.304;2022-10-16T00:37:00;13.90;99.90
19252;DHT22;9760;50.944;5.304;2022-10-16T00:39:26;13.90;99.90
19252;DHT22;9760;50.944;5.304;2022-10-16T00:41:51;13.90;99.90
19252;DHT22;9760;50.944;5.304;2022-10-16T00:47:15;13.80;99.90
19252;DHT22;9760;50.944;5.304;2022-10-16T00:49:43;13.80;99.90
19252;DHT22;9760;50.944;5.304;2022-10-16T00:52:10;13.80;99.90
19252;DHT22;9760;50.944;5.304;2022-10-16T00:54:36;13.80;99.90
19252;DHT22;9760;50.944;5.304;2022-10-16T00:57:04;13.80;99.90
19252;DHT22;9760;50.944;5.304;2022-10-16T00:59:39;13.70;99.90
19252;DHT22;9760;50.944;5.304;2022-10-16T01:02:07;13.80;99.90
19252;DHT22;9760;50.944;5.304;2022-10-16T01:04:46;13.80;99.90
19252;DHT22;9760;50.944;5.304;2022-10-16T01:12:44;13.70;99.90
19252;DHT22;9760;50.944;5.304;2022-10-16T01:21:33;13.60;99.90
19252;DHT22;9760;50.944;5.304;2022-10-16T01:31:39;13.60;99.90
19252;DHT22;9760;50.944;5.304;2022-10-16T01:34:10;13.50;99.90
19252;DHT22;9760;50.944;5.304;2022-10-16T01:36:42;13.40;99.90
19252;DHT22;9760;50.944;5.304;2022-10-16T01:39:11;13.40;99.90
19252;DHT22;9760;50.944;5.304;2022-10-16T01:41:43;13.50;99.90
19252;DHT22;9760;50.944;5.304;2022-10-16T01:44:15;13.50;99.90
19252;DHT22;9760;50.944;5.304;2022-10-16T01:46:44;13.50;99.90
19252;DHT22;9760;50.944;5.304;2022-10-16T01:49:12;13.50;99.90
19252;DHT22;9760;50.944;5.304;2022-10-16T01:51:38;13.40;99.90
19252;DHT22;9760;50.944;5.304;2022-10-16T01:54:07;13.40;99.90
19252;DHT22;9760;50.944;5.304;2022-10-16T01:56:35;13.40;99.90
19252;DHT22;9760;50.944;5.304;2022-10-16T01:59:14;13.40;99.90
19252;DHT22;9760;50.944;5.304;2022-10-16T02:01:44;13.50;99.90
19252;DHT22;9760;50.944;5.304;2022-10-16T02:04:43;13.50;99.90
19252;DHT22;9760;50.944;5.304;2022-10-16T02:07:10;13.40;99.90
19252;DHT22;9760;50.944;5.304;2022-10-16T02:09:36;13.40;99.90
19252;DHT22;9760;50.944;5.304;2022-10-16T02:12:26;13.40;99.90
19252;DHT22;9760;50.944;5.304;2022-10-16T02:14:53;13.50;99.90
19252;DHT22;9760;50.944;5.304;2022-10-16T02:17:20;13.40;99.90
19252;DHT22;9760;50.944;5.304;2022-10-16T02:19:47;13.40;99.90
19252;DHT22;9760;50.944;5.304;2022-10-16T02:22:20;13.50;99.90
19252;DHT22;9760;50.944;5.304;2022-10-16T02:25:15;13.40;99.90
19252;DHT22;9760;50.944;5.304;2022-10-16T02:27:53;13.50;99.90
19252;DHT22;9760;50.944;5.304;2022-10-16T02:30:27;13.50;99.90
19252;DHT22;9760;50.944;5.304;2022-10-16T02:32:54;13.40;99.90
19252;DHT22;9760;50.944;5.304;2022-10-16T02:35:23;13.50;99.90
19252;DHT22;9760;50.944;5.304;2022-10-16T02:37:50;13.40;99.90
19252;DHT22;9760;50.944;5.304;2022-10-16T02:40:17;13.40;99.90
19252;DHT22;9760;50.944;5.304;2022-10-16T02:42:43;13.50;99.90
19252;DHT22;9760;50.944;5.304;2022-10-16T02:45:10;13.50;99.90
19252;DHT22;9760;50.944;5.304;2022-10-16T02:47:37;13.50;99.90
19252;DHT22;9760;50.944;5.304;2022-10-16T02:50:03;13.50;99.90
19252;DHT22;9760;50.944;5.304;2022-10-16T02:52:29;13.60;99.90
19252;DHT22;9760;50.944;5.304;2022-10-16T02:54:54;13.60;99.90
19252;DHT22;9760;50.944;5.304;2022-10-16T02:57:20;13.60;99.90
19252;DHT22;9760;50.944;5.304;2022-10-16T02:59:46;13.60;99.90
19252;DHT22;9760;50.944;5.304;2022-10-16T03:02:11;13.60;99.90
19252;DHT22;9760;50.944;5.304;2022-10-16T03:04:37;13.60;99.90
19252;DHT22;9760;50.944;5.304;2022-10-16T03:07:03;13.70;99.90
19252;DHT22;9760;50.944;5.304;2022-10-16T03:09:29;13.50;99.90
19252;DHT22;9760;50.944;5.304;2022-10-16T03:11:54;13.50;99.90
19252;DHT22;9760;50.944;5.304;2022-10-16T03:14:20;13.50;99.90
19252;DHT22;9760;50.944;5.304;2022-10-16T03:16:46;13.50;99.90
19252;DHT22;9760;50.944;5.304;2022-10-16T03:19:11;13.50;99.90
19252;DHT22;9760;50.944;5.304;2022-10-16T03:21:37;13.50;99.90
19252;DHT22;9760;50.944;5.304;2022-10-16T03:24:03;13.40;99.90
19252;DHT22;9760;50.944;5.304;2022-10-16T03:26:28;13.30;99.90
19252;DHT22;9760;50.944;5.304;2022-10-16T03:28:54;13.30;99.90
19252;DHT22;9760;50.944;5.304;2022-10-16T03:31:19;13.30;99.90
19252;DHT22;9760;50.944;5.304;2022-10-16T03:33:45;13.30;99.90
19252;DHT22;9760;50.944;5.304;2022-10-16T03:36:10;13.30;99.90
19252;DHT22;9760;50.944;5.304;2022-10-16T03:38:36;13.30;99.90
19252;DHT22;9760;50.944;5.304;2022-10-16T03:41:02;13.30;99.90
19252;DHT22;9760;50.944;5.304;2022-10-16T03:43:28;13.30;99.90
19252;DHT22;9760;50.944;5.304;2022-10-16T03:45:53;13.40;99.90
19252;DHT22;9760;50.944;5.304;2022-10-16T03:48:19;13.30;99.90
19252;DHT22;9760;50.944;5.304;2022-10-16T03:50:45;13.30;99.90
19252;DHT22;9760;50.944;5.304;2022-10-16T03:53:11;13.30;99.90
19252;DHT22;9760;50.944;5.304;2022-10-16T03:55:37;13.40;99.90
19252;DHT22;9760;50.944;5.304;2022-10-16T03:58:03;13.40;99.90
19252;DHT22;9760;50.944;5.304;2022-10-16T04:00:28;13.30;99.90
19252;DHT22;9760;50.944;5.304;2022-10-16T04:02:54;13.30;99.90
19252;DHT22;9760;50.944;5.304;2022-10-16T04:05:20;13.30;99.90
19252;DHT22;9760;50.944;5.304;2022-10-16T04:07:45;13.30;99.90
19252;DHT22;9760;50.944;5.304;2022-10-16T04:10:11;13.30;99.90
19252;DHT22;9760;50.944;5.304;2022-10-16T04:12:36;13.30;99.90
19252;DHT22;9760;50.944;5.304;2022-10-16T04:15:02;13.30;99.90
19252;DHT22;9760;50.944;5.304;2022-10-16T04:17:28;13.20;99.90
19252;DHT22;9760;50.944;5.304;2022-10-16T04:19:53;13.30;99.90
19252;DHT22;9760;50.944;5.304;2022-10-16T04:22:19;13.30;99.90
19252;DHT22;9760;50.944;5.304;2022-10-16T04:24:44;13.30;99.90
19252;DHT22;9760;50.944;5.304;2022-10-16T04:27:10;13.30;99.90
19252;DHT22;9760;50.944;5.304;2022-10-16T04:29:35;13.30;99.90
19252;DHT22;9760;50.944;5.304;2022-10-16T04:32:01;13.30;99.90
19252;DHT22;9760;50.944;5.304;2022-10-16T04:34:27;13.30;99.90
19252;DHT22;9760;50.944;5.304;2022-10-16T04:36:52;13.30;99.90
19252;DHT22;9760;50.944;5.304;2022-10-16T04:39:18;13.30;99.90
19252;DHT22;9760;50.944;5.304;2022-10-16T04:41:43;13.30;99.90
19252;DHT22;9760;50.944;5.304;2022-10-16T04:44:09;13.30;99.90
19252;DHT22;9760;50.944;5.304;2022-10-16T04:46:35;13.30;99.90
19252;DHT22;9760;50.944;5.304;2022-10-16T04:49:00;13.30;99.90
19252;DHT22;9760;50.944;5.304;2022-10-16T04:51:26;13.30;99.90
19252;DHT22;9760;50.944;5.304;2022-10-16T04:53:53;13.30;99.90
19252;DHT22;9760;50.944;5.304;2022-10-16T04:56:20;13.30;99.90
19252;DHT22;9760;50.944;5.304;2022-10-16T04:58:46;13.40;99.90
19252;DHT22;9760;50.944;5.304;2022-10-16T05:01:12;13.40;99.90
19252;DHT22;9760;50.944;5.304;2022-10-16T05:03:38;13.40;99.90
19252;DHT22;9760;50.944;5.304;2022-10-16T05:06:05;13.30;99.90
19252;DHT22;9760;50.944;5.304;2022-10-16T05:08:31;13.30;99.90
19252;DHT22;9760;50.944;5.304;2022-10-16T05:10:57;13.30;99.90
19252;DHT22;9760;50.944;5.304;2022-10-16T05:13:22;13.30;99.90
19252;DHT22;9760;50.944;5.304;2022-10-16T05:15:49;13.30;99.90
19252;DHT22;9760;50.944;5.304;2022-10-16T05:18:15;13.30;99.90
19252;DHT22;9760;50.944;5.304;2022-10-16T05:20:41;13.30;99.90
19252;DHT22;9760;50.944;5.304;2022-10-16T05:23:07;13.20;99.90
19252;DHT22;9760;50.944;5.304;2022-10-16T05:25:35;13.30;99.90
19252;DHT22;9760;50.944;5.304;2022-10-16T05:28:01;13.20;99.90
19252;DHT22;9760;50.944;5.304;2022-10-16T05:30:27;13.20;99.90
19252;DHT22;9760;50.944;5.304;2022-10-16T05:32:53;13.20;99.90
19252;DHT22;9760;50.944;5.304;2022-10-16T05:35:19;13.20;99.90
19252;DHT22;9760;50.944;5.304;2022-10-16T05:37:45;13.20;99.90
19252;DHT22;9760;50.944;5.304;2022-10-16T05:40:12;13.30;99.90
19252;DHT22;9760;50.944;5.304;2022-10-16T05:42:38;13.30;99.90
19252;DHT22;9760;50.944;5.304;2022-10-16T05:45:05;13.20;99.90
19252;DHT22;9760;50.944;5.304;2022-10-16T05:47:31;13.20;99.90
19252;DHT22;9760;50.944;5.304;2022-10-16T05:49:57;13.20;99.90
19252;DHT22;9760;50.944;5.304;2022-10-16T05:52:22;13.20;99.90
19252;DHT22;9760;50.944;5.304;2022-10-16T05:54:48;13.20;99.90
19252;DHT22;9760;50.944;5.304;2022-10-16T05:57:13;13.20;99.90
19252;DHT22;9760;50.944;5.304;2022-10-16T05:59:39;13.10;99.90
19252;DHT22;9760;50.944;5.304;2022-10-16T06:02:05;13.00;99.90
19252;DHT22;9760;50.944;5.304;2022-10-16T06:04:31;13.00;99.90
19252;DHT22;9760;50.944;5.304;2022-10-16T06:06:58;13.10;99.90
19252;DHT22;9760;50.944;5.304;2022-10-16T06:09:26;13.00;99.90
19252;DHT22;9760;50.944;5.304;2022-10-16T06:11:51;13.10;99.90
19252;DHT22;9760;50.944;5.304;2022-10-16T06:14:17;13.10;99.90
19252;DHT22;9760;50.944;5.304;2022-10-16T06:16:42;13.00;99.90
19252;DHT22;9760;50.944;5.304;2022-10-16T06:19:08;13.00;99.90
19252;DHT22;9760;50.944;5.304;2022-10-16T06:21:34;13.00;99.90
19252;DHT22;9760;50.944;5.304;2022-10-16T06:24:00;13.00;99.90
19252;DHT22;9760;50.944;5.304;2022-10-16T06:26:28;13.00;99.90
19252;DHT22;9760;50.944;5.304;2022-10-16T06:28:55;13.00;99.90
19252;DHT22;9760;50.944;5.304;2022-10-16T06:31:22;13.00;99.90
19252;DHT22;9760;50.944;5.304;2022-10-16T06:33:51;13.00;99.90
19252;DHT22;9760;50.944;5.304;2022-10-16T06:36:17;13.00;99.90
19252;DHT22;9760;50.944;5.304;2022-10-16T06:38:43;13.00;99.90
19252;DHT22;9760;50.944;5.304;2022-10-16T06:41:12;13.00;99.90
19252;DHT22;9760;50.944;5.304;2022-10-16T06:43:37;13.00;99.90
19252;DHT22;9760;50.944;5.304;2022-10-16T06:46:05;13.00;99.90
19252;DHT22;9760;50.944;5.304;2022-10-16T06:48:33;13.10;99.90
19252;DHT22;9760;50.944;5.304;2022-10-16T06:51:01;13.10;99.90
19252;DHT22;9760;50.944;5.304;2022-10-16T06:53:29;13.10;99.90
19252;DHT22;9760;50.944;5.304;2022-10-16T06:55:56;13.00;99.90
19252;DHT22;9760;50.944;5.304;2022-10-16T06:58:22;13.00;99.90
19252;DHT22;9760;50.944;5.304;2022-10-16T07:00:48;13.10;99.90
19252;DHT22;9760;50.944;5.304;2022-10-16T07:03:13;13.20;99.90
19252;DHT22;9760;50.944;5.304;2022-10-16T07:05:43;13.30;99.90
19252;DHT22;9760;50.944;5.304;2022-10-16T07:08:09;13.30;99.90
19252;DHT22;9760;50.944;5.304;2022-10-16T07:10:35;13.40;99.90
19252;DHT22;9760;50.944;5.304;2022-10-16T07:13:00;13.50;99.90
19252;DHT22;9760;50.944;5.304;2022-10-16T07:15:26;13.50;99.90
19252;DHT22;9760;50.944;5.304;2022-10-16T07:17:52;13.60;99.90
19252;DHT22;9760;50.944;5.304;2022-10-16T07:20:18;13.70;99.90
19252;DHT22;9760;50.944;5.304;2022-10-16T07:22:43;13.70;99.90
19252;DHT22;9760;50.944;5.304;2022-10-16T07:25:09;13.80;99.90
19252;DHT22;9760;50.944;5.304;2022-10-16T07:27:36;13.90;99.90
19252;DHT22;9760;50.944;5.304;2022-10-16T07:30:03;14.00;99.90
19252;DHT22;9760;50.944;5.304;2022-10-16T07:32:28;14.10;99.90
19252;DHT22;9760;50.944;5.304;2022-10-16T07:34:54;14.10;99.90
19252;DHT22;9760;50.944;5.304;2022-10-16T07:37:21;14.20;99.90
19252;DHT22;9760;50.944;5.304;2022-10-16T07:39:47;14.30;99.90
19252;DHT22;9760;50.944;5.304;2022-10-16T07:42:12;14.40;99.90
19252;DHT22;9760;50.944;5.304;2022-10-16T07:44:38;14.40;99.90
19252;DHT22;9760;50.944;5.304;2022-10-16T07:47:03;14.50;99.90
19252;DHT22;9760;50.944;5.304;2022-10-16T07:49:29;14.60;99.90
19252;DHT22;9760;50.944;5.304;2022-10-16T07:51:55;14.60;99.90
19252;DHT22;9760;50.944;5.304;2022-10-16T07:54:20;14.70;99.90
19252;DHT22;9760;50.944;5.304;2022-10-16T07:56:46;14.80;99.90
19252;DHT22;9760;50.944;5.304;2022-10-16T07:59:11;14.90;99.90
19252;DHT22;9760;50.944;5.304;2022-10-16T08:01:37;15.00;99.90
19252;DHT22;9760;50.944;5.304;2022-10-16T08:04:03;15.10;99.90
19252;DHT22;9760;50.944;5.304;2022-10-16T08:06:28;15.20;99.90
19252;DHT22;9760;50.944;5.304;2022-10-16T08:08:55;15.40;99.90
19252;DHT22;9760;50.944;5.304;2022-10-16T08:11:21;15.40;99.90
19252;DHT22;9760;50.944;5.304;2022-10-16T08:13:48;15.40;99.90
19252;DHT22;9760;50.944;5.304;2022-10-16T08:16:13;15.30;99.90
19252;DHT22;9760;50.944;5.304;2022-10-16T08:18:40;15.20;99.90
19252;DHT22;9760;50.944;5.304;2022-10-16T08:21:07;15.30;99.90
19252;DHT22;9760;50.944;5.304;2022-10-16T08:23:33;15.40;99.90
19252;DHT22;9760;50.944;5.304;2022-10-16T08:26:05;15.60;99.90
19252;DHT22;9760;50.944;5.304;2022-10-16T08:28:31;15.60;99.90
19252;DHT22;9760;50.944;5.304;2022-10-16T08:31:05;15.60;99.90
19252;DHT22;9760;50.944;5.304;2022-10-16T08:33:31;15.80;99.90
19252;DHT22;9760;50.944;5.304;2022-10-16T08:35:56;15.90;99.90
19252;DHT22;9760;50.944;5.304;2022-10-16T08:38:22;15.90;99.90
19252;DHT22;9760;50.944;5.304;2022-10-16T08:40:48;16.10;99.90
19252;DHT22;9760;50.944;5.304;2022-10-16T08:48:53;16.20;99.90
19252;DHT22;9760;50.944;5.304;2022-10-16T08:51:26;16.20;99.90
19252;DHT22;9760;50.944;5.304;2022-10-16T08:53:57;16.30;99.90
19252;DHT22;9760;50.944;5.304;2022-10-16T08:56:24;16.40;99.90
19252;DHT22;9760;50.944;5.304;2022-10-16T08:58:51;16.40;99.90
19252;DHT22;9760;50.944;5.304;2022-10-16T09:01:20;16.50;99.90
19252;DHT22;9760;50.944;5.304;2022-10-16T09:06:54;16.60;99.90
19252;DHT22;9760;50.944;5.304;2022-10-16T09:15:27;17.00;99.90
19252;DHT22;9760;50.944;5.304;2022-10-16T09:18:03;17.10;99.90
19252;DHT22;9760;50.944;5.304;2022-10-16T09:25:30;17.30;99.90
19252;DHT22;9760;50.944;5.304;2022-10-16T09:27:56;17.30;99.90
19252;DHT22;9760;50.944;5.304;2022-10-16T09:30:22;17.30;99.90
19252;DHT22;9760;50.944;5.304;2022-10-16T09:32:52;17.20;99.90
19252;DHT22;9760;50.944;5.304;2022-10-16T09:35:32;17.30;99.90
19252;DHT22;9760;50.944;5.304;2022-10-16T09:37:58;17.40;99.90
19252;DHT22;9760;50.944;5.304;2022-10-16T09:40:30;17.60;99.90
19252;DHT22;9760;50.944;5.304;2022-10-16T09:46:00;17.70;99.90
19252;DHT22;9760;50.944;5.304;2022-10-16T09:49:16;17.90;99.90
19252;DHT22;9760;50.944;5.304;2022-10-16T09:51:43;18.10;99.90
19252;DHT22;9760;50.944;5.304;2022-10-16T09:56:36;18.20;99.90
19252;DHT22;9760;50.944;5.304;2022-10-16T09:59:12;18.40;99.90
19252;DHT22;9760;50.944;5.304;2022-10-16T10:01:46;18.80;99.90
19252;DHT22;9760;50.944;5.304;2022-10-16T10:04:12;19.50;99.90
19252;DHT22;9760;50.944;5.304;2022-10-16T10:06:46;19.30;99.90
19252;DHT22;9760;50.944;5.304;2022-10-16T10:16:46;19.00;99.90
19252;DHT22;9760;50.944;5.304;2022-10-16T10:19:23;19.30;99.90
19252;DHT22;9760;50.944;5.304;2022-10-16T10:21:50;19.40;99.90
19252;DHT22;9760;50.944;5.304;2022-10-16T10:24:17;19.50;99.90
19252;DHT22;9760;50.944;5.304;2022-10-16T10:27:08;19.50;99.90
19252;DHT22;9760;50.944;5.304;2022-10-16T10:32:54;18.40;99.90
19252;DHT22;9760;50.944;5.304;2022-10-16T10:35:36;18.10;99.90
19252;DHT22;9760;50.944;5.304;2022-10-16T10:38:20;18.40;99.90
19252;DHT22;9760;50.944;5.304;2022-10-16T10:40:51;18.50;99.90
19252;DHT22;9760;50.944;5.304;2022-10-16T10:44:16;19.00;99.90
19252;DHT22;9760;50.944;5.304;2022-10-16T10:46:51;18.90;99.90
19252;DHT22;9760;50.944;5.304;2022-10-16T10:49:43;18.40;99.90
19252;DHT22;9760;50.944;5.304;2022-10-16T10:55:23;18.80;99.90
19252;DHT22;9760;50.944;5.304;2022-10-16T11:06:24;18.70;99.90
19252;DHT22;9760;50.944;5.304;2022-10-16T11:14:20;18.80;99.90
19252;DHT22;9760;50.944;5.304;2022-10-16T11:25:23;18.80;99.90
19252;DHT22;9760;50.944;5.304;2022-10-16T11:28:03;18.80;99.90
19252;DHT22;9760;50.944;5.304;2022-10-16T11:33:25;18.90;99.90
19252;DHT22;9760;50.944;5.304;2022-10-16T11:39:04;19.00;99.90
19252;DHT22;9760;50.944;5.304;2022-10-16T11:49:44;18.80;99.90
19252;DHT22;9760;50.944;5.304;2022-10-16T11:52:30;18.80;99.90
19252;DHT22;9760;50.944;5.304;2022-10-16T11:55:14;19.00;99.90
19252;DHT22;9760;50.944;5.304;2022-10-16T11:57:51;19.00;99.90
19252;DHT22;9760;50.944;5.304;2022-10-16T12:08:20;18.90;99.90
19252;DHT22;9760;50.944;5.304;2022-10-16T12:10:47;19.10;99.90
19252;DHT22;9760;50.944;5.304;2022-10-16T12:13:34;19.20;99.90
19252;DHT22;9760;50.944;5.304;2022-10-16T12:16:20;19.30;99.90
19252;DHT22;9760;50.944;5.304;2022-10-16T12:18:47;19.20;99.90
19252;DHT22;9760;50.944;5.304;2022-10-16T12:21:15;19.30;99.90
19252;DHT22;9760;50.944;5.304;2022-10-16T12:23:53;19.20;99.90
19252;DHT22;9760;50.944;5.304;2022-10-16T12:26:33;19.10;99.90
19252;DHT22;9760;50.944;5.304;2022-10-16T12:29:35;19.10;99.90
19252;DHT22;9760;50.944;5.304;2022-10-16T12:32:03;19.30;99.90
19252;DHT22;9760;50.944;5.304;2022-10-16T12:34:42;19.40;99.90
19252;DHT22;9760;50.944;5.304;2022-10-16T12:37:14;19.50;99.90
19252;DHT22;9760;50.944;5.304;2022-10-16T12:39:44;19.50;99.90
19252;DHT22;9760;50.944;5.304;2022-10-16T12:44:55;20.00;99.90
19252;DHT22;9760;50.944;5.304;2022-10-16T12:49:54;20.10;99.90
19252;DHT22;9760;50.944;5.304;2022-10-16T12:52:37;19.80;99.90
19252;DHT22;9760;50.944;5.304;2022-10-16T12:55:12;19.60;99.90
19252;DHT22;9760;50.944;5.304;2022-10-16T12:58:03;19.50;99.90
19252;DHT22;9760;50.944;5.304;2022-10-16T13:00:44;19.40;99.90
19252;DHT22;9760;50.944;5.304;2022-10-16T13:27:56;19.10;99.90
19252;DHT22;9760;50.944;5.304;2022-10-16T13:30:26;19.00;99.90
19252;DHT22;9760;50.944;5.304;2022-10-16T13:33:04;18.90;99.90
19252;DHT22;9760;50.944;5.304;2022-10-16T13:35:32;18.90;99.90
19252;DHT22;9760;50.944;5.304;2022-10-16T13:38:15;19.00;99.90
19252;DHT22;9760;50.944;5.304;2022-10-16T13:43:36;19.30;99.90
19252;DHT22;9760;50.944;5.304;2022-10-16T13:46:26;19.50;99.90
19252;DHT22;9760;50.944;5.304;2022-10-16T13:51:23;19.40;99.90
19252;DHT22;9760;50.944;5.304;2022-10-16T13:53:48;19.20;99.90
19252;DHT22;9760;50.944;5.304;2022-10-16T13:56:16;19.20;99.90
19252;DHT22;9760;50.944;5.304;2022-10-16T13:58:42;19.30;99.90
19252;DHT22;9760;50.944;5.304;2022-10-16T14:01:22;19.30;99.90
19252;DHT22;9760;50.944;5.304;2022-10-16T14:03:49;19.20;99.90
19252;DHT22;9760;50.944;5.304;2022-10-16T14:06:17;19.30;99.90
19252;DHT22;9760;50.944;5.304;2022-10-16T14:08:47;19.50;99.90
19252;DHT22;9760;50.944;5.304;2022-10-16T14:11:20;19.70;99.90
19252;DHT22;9760;50.944;5.304;2022-10-16T14:13:47;19.80;99.90
19252;DHT22;9760;50.944;5.304;2022-10-16T14:16:27;19.80;99.90
19252;DHT22;9760;50.944;5.304;2022-10-16T14:18:59;19.80;99.90
19252;DHT22;9760;50.944;5.304;2022-10-16T14:21:26;19.80;99.90
19252;DHT22;9760;50.944;5.304;2022-10-16T14:23:52;19.70;99.90
19252;DHT22;9760;50.944;5.304;2022-10-16T14:26:20;19.80;99.90
19252;DHT22;9760;50.944;5.304;2022-10-16T14:28:48;19.70;99.90
19252;DHT22;9760;50.944;5.304;2022-10-16T14:33:50;19.60;99.90
19252;DHT22;9760;50.944;5.304;2022-10-16T14:36:16;19.50;99.90
19252;DHT22;9760;50.944;5.304;2022-10-16T14:39:01;19.50;99.90
19252;DHT22;9760;50.944;5.304;2022-10-16T14:41:29;19.30;99.90
19252;DHT22;9760;50.944;5.304;2022-10-16T14:43:56;19.30;99.90
19252;DHT22;9760;50.944;5.304;2022-10-16T14:46:35;19.30;99.90
19252;DHT22;9760;50.944;5.304;2022-10-16T14:51:37;19.20;99.90
19252;DHT22;9760;50.944;5.304;2022-10-16T14:54:04;19.10;99.90
19252;DHT22;9760;50.944;5.304;2022-10-16T14:56:32;19.20;99.90
19252;DHT22;9760;50.944;5.304;2022-10-16T14:59:00;19.20;99.90
19252;DHT22;9760;50.944;5.304;2022-10-16T15:01:26;19.20;99.90
19252;DHT22;9760;50.944;5.304;2022-10-16T15:03:51;19.30;99.90
19252;DHT22;9760;50.944;5.304;2022-10-16T15:06:20;19.30;99.90
19252;DHT22;9760;50.944;5.304;2022-10-16T15:08:46;19.30;99.90
19252;DHT22;9760;50.944;5.304;2022-10-16T15:11:16;19.30;99.90
19252;DHT22;9760;50.944;5.304;2022-10-16T15:13:43;19.30;99.90
19252;DHT22;9760;50.944;5.304;2022-10-16T15:16:14;19.30;99.90
19252;DHT22;9760;50.944;5.304;2022-10-16T15:18:40;19.20;99.90
19252;DHT22;9760;50.944;5.304;2022-10-16T15:21:06;19.20;99.90
19252;DHT22;9760;50.944;5.304;2022-10-16T15:23:32;19.20;99.90
19252;DHT22;9760;50.944;5.304;2022-10-16T15:25:58;19.10;99.90
19252;DHT22;9760;50.944;5.304;2022-10-16T15:28:24;19.10;99.90
19252;DHT22;9760;50.944;5.304;2022-10-16T15:30:53;19.10;99.90
19252;DHT22;9760;50.944;5.304;2022-10-16T15:33:21;19.10;99.90
19252;DHT22;9760;50.944;5.304;2022-10-16T15:35:50;19.00;99.90
19252;DHT22;9760;50.944;5.304;2022-10-16T15:38:18;18.90;99.90
19252;DHT22;9760;50.944;5.304;2022-10-16T15:40:44;18.70;99.90
19252;DHT22;9760;50.944;5.304;2022-10-16T15:43:10;18.70;99.90
19252;DHT22;9760;50.944;5.304;2022-10-16T15:45:36;18.60;99.90
19252;DHT22;9760;50.944;5.304;2022-10-16T15:48:02;18.50;99.90
19252;DHT22;9760;50.944;5.304;2022-10-16T15:50:30;18.40;99.90
19252;DHT22;9760;50.944;5.304;2022-10-16T15:52:55;18.30;99.90
19252;DHT22;9760;50.944;5.304;2022-10-16T15:55:21;18.20;99.90
19252;DHT22;9760;50.944;5.304;2022-10-16T15:57:46;18.20;99.90
19252;DHT22;9760;50.944;5.304;2022-10-16T16:00:15;18.20;99.90
19252;DHT22;9760;50.944;5.304;2022-10-16T16:02:42;18.20;99.90
19252;DHT22;9760;50.944;5.304;2022-10-16T16:05:09;18.20;99.90
19252;DHT22;9760;50.944;5.304;2022-10-16T16:07:39;18.20;99.90
19252;DHT22;9760;50.944;5.304;2022-10-16T16:10:09;18.10;99.90
19252;DHT22;9760;50.944;5.304;2022-10-16T16:12:35;18.10;99.90
19252;DHT22;9760;50.944;5.304;2022-10-16T16:15:02;18.00;99.90
19252;DHT22;9760;50.944;5.304;2022-10-16T16:17:30;17.80;99.90
19252;DHT22;9760;50.944;5.304;2022-10-16T16:19:56;17.80;99.90
19252;DHT22;9760;50.944;5.304;2022-10-16T16:22:21;17.80;99.90
19252;DHT22;9760;50.944;5.304;2022-10-16T16:24:47;17.70;99.90
19252;DHT22;9760;50.944;5.304;2022-10-16T16:27:13;17.70;99.90
19252;DHT22;9760;50.944;5.304;2022-10-16T16:29:39;17.60;99.90
19252;DHT22;9760;50.944;5.304;2022-10-16T16:32:04;17.60;99.90
19252;DHT22;9760;50.944;5.304;2022-10-16T16:34:30;17.60;99.90
19252;DHT22;9760;50.944;5.304;2022-10-16T16:36:56;17.60;99.90
19252;DHT22;9760;50.944;5.304;2022-10-16T16:39:22;17.50;99.90
19252;DHT22;9760;50.944;5.304;2022-10-16T16:41:47;17.40;99.90
19252;DHT22;9760;50.944;5.304;2022-10-16T16:44:14;17.50;99.90
19252;DHT22;9760;50.944;5.304;2022-10-16T16:46:41;17.50;99.90
19252;DHT22;9760;50.944;5.304;2022-10-16T16:49:10;17.40;99.90
19252;DHT22;9760;50.944;5.304;2022-10-16T16:51:37;17.40;99.90
19252;DHT22;9760;50.944;5.304;2022-10-16T16:54:02;17.30;99.90
19252;DHT22;9760;50.944;5.304;2022-10-16T16:56:28;17.30;99.90
19252;DHT22;9760;50.944;5.304;2022-10-16T16:58:56;17.20;99.90
19252;DHT22;9760;50.944;5.304;2022-10-16T17:01:24;17.20;99.90
19252;DHT22;9760;50.944;5.304;2022-10-16T17:03:52;17.10;99.90
19252;DHT22;9760;50.944;5.304;2022-10-16T17:06:19;17.10;99.90
19252;DHT22;9760;50.944;5.304;2022-10-16T17:08:45;17.20;99.90
19252;DHT22;9760;50.944;5.304;2022-10-16T17:11:15;17.20;99.90
19252;DHT22;9760;50.944;5.304;2022-10-16T17:13:41;17.20;99.90
19252;DHT22;9760;50.944;5.304;2022-10-16T17:16:08;17.10;99.90
19252;DHT22;9760;50.944;5.304;2022-10-16T17:18:34;17.10;99.90
19252;DHT22;9760;50.944;5.304;2022-10-16T17:21:01;17.00;99.90
19252;DHT22;9760;50.944;5.304;2022-10-16T17:23:28;17.00;99.90
19252;DHT22;9760;50.944;5.304;2022-10-16T17:25:54;16.90;99.90
19252;DHT22;9760;50.944;5.304;2022-10-16T17:28:20;16.90;99.90
19252;DHT22;9760;50.944;5.304;2022-10-16T17:30:46;16.90;99.90
19252;DHT22;9760;50.944;5.304;2022-10-16T17:33:12;16.80;99.90
19252;DHT22;9760;50.944;5.304;2022-10-16T17:35:43;16.80;99.90
19252;DHT22;9760;50.944;5.304;2022-10-16T17:38:10;16.80;99.90
19252;DHT22;9760;50.944;5.304;2022-10-16T17:40:36;16.80;99.90
19252;DHT22;9760;50.944;5.304;2022-10-16T17:43:02;16.80;99.90
19252;DHT22;9760;50.944;5.304;2022-10-16T17:45:28;16.90;99.90
19252;DHT22;9760;50.944;5.304;2022-10-16T17:47:53;16.90;99.90
19252;DHT22;9760;50.944;5.304;2022-10-16T17:50:19;16.80;99.90
19252;DHT22;9760;50.944;5.304;2022-10-16T17:52:45;16.70;99.90
19252;DHT22;9760;50.944;5.304;2022-10-16T17:55:11;16.60;99.90
19252;DHT22;9760;50.944;5.304;2022-10-16T17:57:36;16.50;99.90
19252;DHT22;9760;50.944;5.304;2022-10-16T18:00:04;16.30;99.90
19252;DHT22;9760;50.944;5.304;2022-10-16T18:02:30;16.10;99.90
19252;DHT22;9760;50.944;5.304;2022-10-16T18:04:56;16.10;99.90
19252;DHT22;9760;50.944;5.304;2022-10-16T18:07:22;16.10;99.90
19252;DHT22;9760;50.944;5.304;2022-10-16T18:09:48;16.10;99.90
19252;DHT22;9760;50.944;5.304;2022-10-16T18:12:14;16.10;99.90
19252;DHT22;9760;50.944;5.304;2022-10-16T18:14:40;16.20;99.90
19252;DHT22;9760;50.944;5.304;2022-10-16T18:17:06;16.20;99.90
19252;DHT22;9760;50.944;5.304;2022-10-16T18:19:31;16.10;99.90